EFKU

Kuopio Airport

Kuopio / Siilinjärvi, Finland
METAR EFKU 220750Z 26011KT 9999 FEW009 BKN017 BKN050 06/04 Q0999
Observed Flight Rules
Oct-22 @ 07:50 UTC (19 minutes ago) Marginal Visual Flight Rules
Wind Visibility Clouds
260° at 11 knots 10,000+ meters
  • Few at 900' AGL
  • Broken at 1,700' AGL
  • Broken at 5,000' AGL
Temperatures Readings
Current 6°C / 43°F
Dewpoint 4°C / 39°F
Humidity 87%
Altimeter 29.5" Hg
Pressure 999 hPa
Elevation 102
METAR EFKU 220750Z 26011KT 9999 FEW009 BKN017 BKN050 06/04 Q0999
Observed Flight Rules
Oct-22 @ 07:50 UTC
(19 minutes ago)
MVFR
Wind Visibility
260° at 11 knots 10,000+ meters
Clouds
  • Few at 900' AGL
  • Broken at 1,700' AGL
  • Broken at 5,000' AGL
Temperature Dewpoint
6°C / 43°F 4°C / 39°F
Humidity Altimeter Pressure
87% 29.5" Hg 999 hPa